Time;durP1;ratioP1;P1;durP2;ratioP2;P2;SDS_P1;SDS_P2;PMS_P1;PMS_P2;Temp;Humidity;BMP_temperature;BMP_pressure;BME280_temperature;BME280_humidity;BME280_pressure;Samples;Min_cycle;Max_cycle;Signal;HPM_P1;HPM_P2
2023/08/29 00:01:22;;;;;;;2.20;2.10;;;17.60;56.40;;;;;;20729;6829;117688;-72
2023/08/29 00:03:47;;;;;;;2.90;2.70;;;17.60;56.40;;;;;;20469;6829;308970;-72
2023/08/29 00:06:13;;;;;;;2.40;2.30;;;17.50;57.50;;;;;;20756;6829;117255;-72
2023/08/29 00:08:39;;;;;;;2.40;2.20;;;17.50;57.00;;;;;;20750;6829;117341;-72
2023/08/29 00:11:05;;;;;;;2.50;2.40;;;17.20;57.80;;;;;;20531;6829;307816;-72
2023/08/29 00:13:30;;;;;;;2.33;2.23;;;17.30;57.50;;;;;;20726;6829;118492;-72
2023/08/29 00:15:56;;;;;;;2.87;2.70;;;17.30;57.90;;;;;;20537;6829;312598;-72
2023/08/29 00:18:21;;;;;;;2.70;2.50;;;17.40;56.90;;;;;;20743;6829;117199;-72
2023/08/29 00:20:47;;;;;;;2.85;2.50;;;17.30;57.40;;;;;;20497;6829;281352;-72
2023/08/29 00:23:12;;;;;;;3.83;2.40;;;17.40;57.20;;;;;;20722;6829;117354;-72
2023/08/29 00:25:38;;;;;;;2.90;2.70;;;17.30;57.30;;;;;;20491;6829;341645;-72
2023/08/29 00:28:03;;;;;;;2.83;2.65;;;17.40;56.70;;;;;;20518;6829;284898;-71
2023/08/29 00:30:33;;;;;;;2.90;2.60;;;17.60;55.90;;;;;;20722;6829;123624;-72
2023/08/29 00:32:58;;;;;;;2.80;2.70;;;17.50;56.50;;;;;;20500;6829;310921;-72
2023/08/29 00:35:24;;;;;;;3.03;2.80;;;17.50;56.50;;;;;;20510;6829;282975;-72
2023/08/29 00:37:49;;;;;;;2.80;2.70;;;17.70;56.10;;;;;;20545;6829;280612;-71
2023/08/29 00:40:16;;;;;;;2.93;2.67;;;17.90;55.30;;;;;;20549;6829;278574;-72
2023/08/29 00:42:41;;;;;;;2.95;2.85;;;18.00;55.20;;;;;;20538;6828;337448;-72
2023/08/29 00:45:07;;;;;;;2.60;2.40;;;17.90;55.80;;;;;;20755;6829;117226;-72
2023/08/29 00:47:33;;;;;;;2.40;2.30;;;17.90;55.80;;;;;;20739;6829;121835;-71
2023/08/29 00:49:58;;;;;;;2.85;2.67;;;17.50;56.80;;;;;;20548;6829;281711;-71
2023/08/29 00:52:24;;;;;;;2.50;2.40;;;17.60;56.80;;;;;;20756;6829;117313;-72
2023/08/29 00:54:51;;;;;;;3.10;2.85;;;17.50;56.10;;;;;;20537;6829;308548;-72
2023/08/29 00:57:17;;;;;;;4.17;2.73;;;17.50;56.10;;;;;;20749;6829;117353;-71
2023/08/29 00:59:42;;;;;;;3.07;2.73;;;17.40;56.70;;;;;;20727;6829;118187;-72
2023/08/29 01:02:08;;;;;;;3.10;3.00;;;17.20;57.50;;;;;;20538;6829;312099;-71
2023/08/29 01:04:33;;;;;;;2.60;2.40;;;17.30;57.40;;;;;;20744;6829;124345;-72
2023/08/29 01:06:59;;;;;;;2.87;2.77;;;17.30;57.80;;;;;;20528;6829;308681;-71
2023/08/29 01:09:25;;;;;;;3.05;2.87;;;17.30;57.20;;;;;;20511;6829;300955;-73
2023/08/29 01:11:51;;;;;;;2.57;2.47;;;17.60;57.50;;;;;;20747;6829;121160;-72
2023/08/29 01:14:36;;;;;;;2.90;2.80;;;17.50;57.40;;;;;;20512;6829;308073;-71
2023/08/29 01:17:27;;;;;;;2.77;2.57;;;17.70;57.10;;;;;;20733;6829;117735;-71
2023/08/29 01:19:53;;;;;;;2.93;2.50;;;17.50;58.20;;;;;;20740;6829;117542;-71
2023/08/29 01:22:32;;;;;;;3.10;2.77;;;17.00;59.00;;;;;;20742;6829;117578;-72
2023/08/29 01:25:11;;;;;;;4.00;2.63;;;17.00;59.00;;;;;;20689;6829;119367;-71
2023/08/29 01:27:37;;;;;;;3.10;2.90;;;16.80;59.40;;;;;;20495;6829;297615;-72
2023/08/29 01:30:03;;;;;;;2.80;2.70;;;17.10;59.60;;;;;;20739;6829;119613;-71
2023/08/29 01:32:28;;;;;;;2.53;2.43;;;17.10;59.80;;;;;;20677;6851;117241;-72
2023/08/29 01:34:54;;;;;;;5.97;2.43;;;16.90;60.10;;;;;;20732;6833;120298;-72
2023/08/29 01:37:19;;;;;;;2.80;2.70;;;16.80;60.60;;;;;;20525;6829;278369;-72
2023/08/29 01:39:45;;;;;;;3.15;2.90;;;17.00;60.00;;;;;;20509;6829;341720;-71
2023/08/29 01:42:11;;;;;;;3.83;2.60;;;17.40;59.70;;;;;;20747;6829;119041;-72
2023/08/29 01:44:36;;;;;;;3.03;2.83;;;17.30;59.00;;;;;;20529;6829;307255;-72
2023/08/29 01:47:02;;;;;;;2.90;2.60;;;17.50;58.60;;;;;;20740;6829;123980;-72
2023/08/29 01:49:28;;;;;;;2.30;2.20;;;17.40;58.90;;;;;;20729;6829;121401;-72
2023/08/29 01:51:54;;;;;;;2.60;2.50;;;17.00;60.00;;;;;;20731;6829;117811;-72
2023/08/29 01:54:20;;;;;;;3.05;2.95;;;17.00;60.00;;;;;;20534;6828;308015;-72
2023/08/29 01:56:45;;;;;;;2.60;2.50;;;17.20;59.10;;;;;;20733;6829;122201;-72
2023/08/29 01:59:11;;;;;;;3.20;2.97;;;17.20;59.30;;;;;;20537;6829;278916;-72
2023/08/29 02:01:36;;;;;;;3.33;3.12;;;17.30;58.70;;;;;;20519;6829;313747;-72
2023/08/29 02:04:03;;;;;;;3.00;2.70;;;17.50;57.70;;;;;;20746;6829;117359;-72
2023/08/29 02:06:28;;;;;;;3.00;2.80;;;17.50;58.30;;;;;;20454;6851;308244;-72
2023/08/29 02:08:54;;;;;;;3.65;2.80;;;17.60;58.10;;;;;;20529;6833;282865;-72
2023/08/29 02:11:20;;;;;;;3.47;2.60;;;17.70;57.90;;;;;;20746;6829;117109;-71
2023/08/29 02:13:46;;;;;;;2.80;2.70;;;17.70;57.90;;;;;;20677;6847;117638;-72
2023/08/29 02:16:11;;;;;;;2.47;2.30;;;17.40;58.50;;;;;;20744;6829;117361;-72
2023/08/29 02:18:37;;;;;;;2.53;2.40;;;17.10;59.10;;;;;;20738;6829;117369;-72
2023/08/29 02:21:02;;;;;;;2.40;2.30;;;17.00;59.70;;;;;;20740;6829;117344;-71
2023/08/29 02:23:28;;;;;;;3.58;3.08;;;16.80;60.10;;;;;;20512;6829;308661;-72
2023/08/29 02:26:03;;;;;;;3.30;3.10;;;17.00;60.10;;;;;;20683;6847;117387;-72
2023/08/29 02:28:30;;;;;;;5.10;4.50;;;17.10;60.40;;;;;;20525;6829;278394;-72
2023/08/29 02:30:55;;;;;;;4.90;4.60;;;17.10;60.40;;;;;;20429;6851;313904;-72
2023/08/29 02:33:21;;;;;;;4.85;4.50;;;17.70;59.70;;;;;;20448;6848;310091;-71
2023/08/29 02:35:47;;;;;;;4.60;4.30;;;17.60;59.60;;;;;;20504;6829;308433;-72
2023/08/29 02:38:13;;;;;;;4.32;4.03;;;17.80;59.00;;;;;;20745;6829;117364;-72
2023/08/29 02:40:38;;;;;;;4.00;3.80;;;17.70;59.50;;;;;;20742;6829;117789;-72
2023/08/29 02:43:04;;;;;;;4.60;4.10;;;17.30;60.10;;;;;;20751;6829;120044;-72
2023/08/29 02:45:29;;;;;;;5.20;4.80;;;17.10;60.80;;;;;;20503;6829;311157;-72
2023/08/29 02:47:55;;;;;;;6.03;4.90;;;17.20;60.70;;;;;;20536;6829;312389;-72
2023/08/29 02:50:21;;;;;;;4.72;4.53;;;17.40;60.30;;;;;;20743;6829;117682;-72
2023/08/29 02:52:47;;;;;;;4.80;4.40;;;17.30;60.10;;;;;;20745;6829;117349;-71
2023/08/29 02:55:12;;;;;;;5.82;5.32;;;17.10;60.90;;;;;;20528;6829;336995;-72
2023/08/29 02:57:38;;;;;;;4.90;4.67;;;17.10;60.10;;;;;;20723;6829;118790;-72
2023/08/29 03:00:05;;;;;;;5.97;5.57;;;17.10;60.40;;;;;;20531;6829;279817;-72
2023/08/29 03:02:29;;;;;;;5.27;4.97;;;17.20;59.80;;;;;;20736;6829;117180;-72
2023/08/29 03:04:56;;;;;;;5.07;4.77;;;16.90;60.80;;;;;;20737;6829;117352;-72
2023/08/29 03:07:21;;;;;;;5.10;4.60;;;16.90;60.80;;;;;;20749;6828;120739;-72
2023/08/29 03:09:47;;;;;;;6.22;5.82;;;16.70;61.50;;;;;;20506;6829;336640;-72
2023/08/29 03:12:13;;;;;;;5.77;5.10;;;16.80;60.80;;;;;;20759;6829;120645;-72
2023/08/29 03:14:38;;;;;;;6.10;5.60;;;16.80;61.00;;;;;;20538;6829;336990;-72
2023/08/29 03:17:04;;;;;;;4.93;4.63;;;17.00;60.50;;;;;;20740;6829;123648;-72
2023/08/29 03:19:30;;;;;;;5.80;5.50;;;17.10;60.60;;;;;;20441;6829;310775;-72
2023/08/29 03:21:56;;;;;;;6.07;5.00;;;17.10;60.60;;;;;;20720;6829;117620;-72
2023/08/29 03:24:21;;;;;;;5.80;5.40;;;17.00;60.80;;;;;;20498;6829;281198;-73
2023/08/29 03:26:48;;;;;;;5.97;5.57;;;17.10;60.50;;;;;;20521;6829;307980;-72
2023/08/29 03:29:13;;;;;;;6.18;5.68;;;17.50;60.20;;;;;;20535;6829;308994;-72
2023/08/29 03:31:39;;;;;;;5.50;5.00;;;17.60;59.40;;;;;;20728;6829;120153;-72
2023/08/29 03:34:04;;;;;;;5.00;4.70;;;17.50;59.70;;;;;;20742;6829;117386;-72
2023/08/29 03:36:30;;;;;;;6.40;6.00;;;17.20;60.40;;;;;;20529;6829;278969;-72
2023/08/29 03:38:56;;;;;;;5.63;5.30;;;17.20;60.40;;;;;;20747;6829;117359;-72
2023/08/29 03:41:21;;;;;;;6.70;6.27;;;17.10;60.60;;;;;;20524;6829;283157;-72
2023/08/29 03:43:47;;;;;;;6.75;6.20;;;17.20;60.40;;;;;;20434;6829;277865;-72
2023/08/29 03:46:12;;;;;;;6.00;5.57;;;17.40;60.00;;;;;;20727;6829;117630;-72
2023/08/29 03:48:38;;;;;;;7.15;6.80;;;17.30;60.20;;;;;;20524;6829;307612;-72
2023/08/29 03:51:07;;;;;;;6.17;5.77;;;17.30;60.20;;;;;;20655;6829;118813;-72
2023/08/29 03:53:33;;;;;;;7.57;7.07;;;17.20;60.30;;;;;;20471;6829;283244;-73
2023/08/29 03:56:02;;;;;;;6.53;6.03;;;17.20;60.30;;;;;;20722;6829;117604;-73
2023/08/29 03:58:28;;;;;;;7.03;6.53;;;17.10;60.80;;;;;;20455;6851;308099;-73
2023/08/29 04:00:54;;;;;;;6.13;5.57;;;17.20;60.90;;;;;;20682;6848;117319;-73
2023/08/29 04:03:20;;;;;;;7.50;7.00;;;17.20;60.60;;;;;;20544;6829;279160;-73
2023/08/29 04:05:48;;;;;;;8.37;7.40;;;17.20;60.60;;;;;;20456;6848;296585;-73
2023/08/29 04:08:14;;;;;;;6.33;5.73;;;17.40;60.20;;;;;;20718;6833;117181;-71
2023/08/29 04:10:39;;;;;;;6.13;5.50;;;17.20;60.50;;;;;;20754;6829;120389;-72
2023/08/29 04:13:05;;;;;;;5.47;5.17;;;16.90;61.20;;;;;;20749;6829;119590;-72
2023/08/29 04:15:30;;;;;;;7.80;7.30;;;16.70;62.00;;;;;;20502;6829;307551;-72
2023/08/29 04:17:56;;;;;;;7.90;7.20;;;16.80;61.70;;;;;;20360;6828;342499;-73
2023/08/29 04:20:22;;;;;;;6.85;6.20;;;17.10;60.90;;;;;;20741;6829;117218;-73
2023/08/29 04:22:47;;;;;;;6.23;5.70;;;17.10;61.20;;;;;;20750;6829;121292;-73
2023/08/29 04:25:13;;;;;;;8.48;7.68;;;16.80;61.70;;;;;;20541;6829;319228;-73
2023/08/29 04:27:39;;;;;;;8.52;7.85;;;16.90;61.50;;;;;;20496;6829;282290;-73
2023/08/29 04:30:04;;;;;;;7.22;6.57;;;17.20;60.90;;;;;;20689;6829;120200;-76
2023/08/29 04:32:36;;;;;;;8.80;8.20;;;17.00;61.00;;;;;;20450;6851;278164;-76
2023/08/29 04:34:59;;;;;;;8.83;8.23;;;17.10;61.10;;;;;;20462;6847;308816;-73
2023/08/29 04:37:25;;;;;;;7.68;7.18;;;17.30;60.50;;;;;;20713;6829;118281;-73
2023/08/29 04:39:51;;;;;;;7.80;7.17;;;17.10;60.90;;;;;;20454;6829;313721;-73
2023/08/29 04:42:16;;;;;;;7.85;7.30;;;17.20;61.30;;;;;;20491;6829;327294;-73
2023/08/29 04:44:42;;;;;;;7.20;6.40;;;17.40;61.00;;;;;;20704;6829;117255;-73
2023/08/29 04:47:07;;;;;;;6.60;6.20;;;17.30;61.20;;;;;;20725;6829;122294;-72
2023/08/29 04:49:34;;;;;;;6.73;6.33;;;17.00;61.90;;;;;;20639;6829;117400;-70
2023/08/29 04:51:59;;;;;;;9.27;8.37;;;16.80;62.70;;;;;;20473;6829;283775;-70
2023/08/29 04:54:24;;;;;;;7.30;6.70;;;16.90;61.90;;;;;;20741;6829;117163;-71
2023/08/29 04:56:50;;;;;;;7.23;6.63;;;16.90;62.10;;;;;;20699;6829;117216;-70
2023/08/29 04:59:15;;;;;;;8.80;8.10;;;16.80;62.70;;;;;;20522;6829;294942;-70
2023/08/29 05:01:41;;;;;;;9.00;8.47;;;16.90;62.40;;;;;;20494;6829;295922;-70
2023/08/29 05:04:08;;;;;;;7.37;6.97;;;17.20;61.70;;;;;;20726;6829;120095;-71
2023/08/29 05:06:32;;;;;;;8.18;7.10;;;17.10;61.80;;;;;;20729;6829;118068;-71
2023/08/29 05:08:58;;;;;;;7.43;6.57;;;16.90;62.40;;;;;;20730;6829;117409;-70
2023/08/29 05:11:23;;;;;;;8.80;8.00;;;16.80;62.90;;;;;;20500;6829;280501;-73
2023/08/29 05:13:49;;;;;;;7.37;6.67;;;16.90;62.30;;;;;;20733;6829;118006;-70
2023/08/29 05:16:14;;;;;;;7.07;6.67;;;16.90;62.50;;;;;;20732;6829;117291;-71
2023/08/29 05:18:41;;;;;;;7.87;7.37;;;16.70;63.10;;;;;;20516;6829;278473;-76
2023/08/29 05:21:07;;;;;;;6.77;6.27;;;16.90;63.00;;;;;;20744;6829;120734;-75
2023/08/29 05:23:32;;;;;;;7.93;7.53;;;16.90;63.00;;;;;;20512;6829;281858;-75
2023/08/29 05:25:59;;;;;;;6.83;6.40;;;17.10;62.80;;;;;;20738;6829;120382;-78
2023/08/29 05:28:25;;;;;;;8.23;7.62;;;17.10;62.80;;;;;;20532;6827;287050;-71
2023/08/29 05:30:51;;;;;;;8.43;7.75;;;17.50;62.00;;;;;;20533;6829;282626;-72
2023/08/29 05:33:17;;;;;;;9.83;9.07;;;17.50;61.30;;;;;;20509;6829;279799;-73
2023/08/29 05:35:42;;;;;;;8.83;8.13;;;17.70;60.60;;;;;;20720;6829;129939;-71
2023/08/29 05:38:08;;;;;;;7.28;6.75;;;17.50;60.90;;;;;;20744;6829;117462;-72
2023/08/29 05:40:34;;;;;;;7.87;7.30;;;17.00;62.60;;;;;;20743;6829;119758;-71
2023/08/29 05:43:00;;;;;;;7.33;6.83;;;17.00;62.60;;;;;;20739;6829;117842;-71
2023/08/29 05:45:25;;;;;;;9.10;8.57;;;16.80;63.20;;;;;;20503;6829;278117;-71
2023/08/29 05:47:51;;;;;;;8.17;7.77;;;17.00;63.40;;;;;;20731;6829;118026;-69
2023/08/29 05:50:17;;;;;;;10.63;9.95;;;17.00;63.40;;;;;;20524;6829;278557;-69
2023/08/29 05:52:42;;;;;;;9.80;9.00;;;17.10;62.60;;;;;;20747;6829;123196;-70
2023/08/29 05:55:08;;;;;;;10.83;10.13;;;17.10;62.80;;;;;;20562;6829;312450;-71
2023/08/29 05:57:34;;;;;;;9.02;8.50;;;17.30;62.60;;;;;;20756;6829;117679;-71
2023/08/29 05:59:59;;;;;;;11.10;10.30;;;17.20;62.70;;;;;;20546;6829;313198;-71
2023/08/29 06:02:26;;;;;;;8.70;8.10;;;17.20;62.80;;;;;;20757;6829;117554;-70
2023/08/29 06:04:54;;;;;;;8.53;8.03;;;17.20;62.80;;;;;;20656;6829;118701;-69
2023/08/29 06:07:22;;;;;;;8.50;7.90;;;17.00;63.50;;;;;;20682;6829;118370;-69
2023/08/29 06:09:47;;;;;;;8.90;7.87;;;16.80;64.20;;;;;;20691;6829;117409;-71
2023/08/29 06:12:13;;;;;;;8.27;7.47;;;16.70;64.70;;;;;;20719;6829;122234;-70
2023/08/29 06:14:41;;;;;;;9.03;8.20;;;16.60;65.20;;;;;;20727;6829;119486;-71
2023/08/29 06:17:07;;;;;;;11.37;10.50;;;16.50;65.60;;;;;;20434;6829;317133;-71
2023/08/29 06:19:33;;;;;;;9.00;8.50;;;16.70;65.00;;;;;;20737;6829;120878;-71
2023/08/29 06:21:58;;;;;;;9.23;8.50;;;16.80;64.90;;;;;;20754;6829;117938;-71
2023/08/29 06:24:24;;;;;;;8.60;7.80;;;16.70;65.40;;;;;;20762;6829;120270;-70
2023/08/29 06:26:50;;;;;;;11.43;10.57;;;16.80;65.10;;;;;;20537;6829;311597;-71
2023/08/29 06:29:16;;;;;;;10.20;9.50;;;16.80;65.10;;;;;;20749;6829;117561;-71
2023/08/29 06:31:41;;;;;;;11.55;10.63;;;16.90;65.00;;;;;;20508;6829;337219;-71
2023/08/29 06:34:07;;;;;;;9.37;8.67;;;17.00;64.10;;;;;;20747;6829;121880;-71
2023/08/29 06:36:32;;;;;;;11.63;10.73;;;17.10;64.20;;;;;;20521;6829;301784;-71
2023/08/29 06:38:58;;;;;;;10.50;9.90;;;17.20;63.70;;;;;;20534;6829;312153;-71
2023/08/29 06:41:24;;;;;;;11.67;10.87;;;17.50;63.20;;;;;;20517;6827;336688;-72
2023/08/29 06:43:50;;;;;;;12.03;11.10;;;18.00;61.60;;;;;;20542;6829;312851;-71
2023/08/29 06:46:15;;;;;;;10.17;9.27;;;17.90;61.50;;;;;;20753;6829;122670;-70
2023/08/29 06:48:42;;;;;;;12.05;11.15;;;17.80;61.80;;;;;;20542;6829;308205;-71
2023/08/29 06:51:08;;;;;;;12.47;11.53;;;17.80;61.80;;;;;;20542;6829;294087;-71
2023/08/29 06:53:33;;;;;;;9.93;9.33;;;17.90;61.50;;;;;;20737;6829;120684;-71
2023/08/29 06:55:59;;;;;;;12.68;11.68;;;17.70;61.80;;;;;;20535;6829;279645;-71
2023/08/29 06:58:26;;;;;;;13.60;12.70;;;17.90;61.80;;;;;;20532;6829;278122;-71
2023/08/29 07:00:52;;;;;;;11.20;10.50;;;17.70;62.20;;;;;;20733;6829;117937;-71
2023/08/29 07:03:17;;;;;;;9.83;9.20;;;17.70;62.10;;;;;;20747;6829;118205;-71
2023/08/29 07:05:48;;;;;;;10.10;9.30;;;17.40;62.90;;;;;;20699;6829;117271;-71
2023/08/29 07:08:14;;;;;;;12.70;11.73;;;17.20;63.70;;;;;;20518;6829;279049;-71
2023/08/29 07:10:40;;;;;;;10.83;9.93;;;17.20;63.70;;;;;;20736;6829;117622;-72
2023/08/29 07:13:06;;;;;;;10.43;9.55;;;17.20;63.90;;;;;;20744;6829;119133;-71
2023/08/29 07:15:31;;;;;;;12.40;11.50;;;17.00;64.40;;;;;;20495;6829;279426;-71
2023/08/29 07:17:57;;;;;;;13.50;12.30;;;17.10;64.70;;;;;;20523;6829;312075;-72
2023/08/29 07:20:22;;;;;;;10.48;9.77;;;17.40;64.10;;;;;;20732;6829;120754;-71
2023/08/29 07:22:48;;;;;;;12.43;11.63;;;17.40;64.10;;;;;;20516;6829;307980;-71
2023/08/29 07:25:15;;;;;;;11.00;10.13;;;17.40;64.00;;;;;;20730;6829;123312;-71
2023/08/29 07:27:40;;;;;;;11.40;10.40;;;17.40;64.40;;;;;;20707;6829;118229;-71
2023/08/29 07:30:06;;;;;;;11.15;10.23;;;17.20;64.60;;;;;;20741;6829;120186;-71
2023/08/29 07:32:31;;;;;;;12.20;11.13;;;17.00;65.30;;;;;;20745;6829;117991;-71
2023/08/29 07:34:57;;;;;;;13.85;12.82;;;16.80;65.90;;;;;;20522;6829;315073;-72
2023/08/29 07:37:26;;;;;;;16.43;15.13;;;17.00;65.60;;;;;;20549;6829;279130;-72
2023/08/29 07:39:51;;;;;;;11.83;11.00;;;17.40;64.50;;;;;;20749;6829;117781;-73
2023/08/29 07:42:18;;;;;;;11.97;10.87;;;17.40;64.50;;;;;;20764;6829;117990;-73
2023/08/29 07:44:45;;;;;;;11.27;10.43;;;17.00;65.90;;;;;;20758;6829;120978;-72
2023/08/29 07:47:11;;;;;;;15.20;13.93;;;17.00;65.90;;;;;;20543;6829;280146;-72
2023/08/29 07:49:38;;;;;;;15.68;14.57;;;17.20;65.30;;;;;;20527;6829;307238;-73
2023/08/29 07:52:04;;;;;;;16.15;14.75;;;17.60;64.50;;;;;;20457;6828;309995;-72
2023/08/29 07:54:30;;;;;;;16.10;15.00;;;18.10;62.90;;;;;;20477;6850;282421;-73
2023/08/29 07:56:56;;;;;;;15.50;14.40;;;18.10;62.90;;;;;;20490;6832;337209;-73
2023/08/29 07:59:23;;;;;;;15.63;14.35;;;18.30;62.30;;;;;;20527;6829;334253;-73
2023/08/29 08:01:48;;;;;;;12.77;11.73;;;18.30;62.20;;;;;;20721;6829;118893;-73
2023/08/29 08:04:14;;;;;;;13.70;12.83;;;18.30;62.00;;;;;;20473;6847;308774;-72
2023/08/29 08:06:40;;;;;;;14.43;13.53;;;18.30;61.80;;;;;;20515;6837;284721;-72
2023/08/29 08:09:05;;;;;;;14.47;13.37;;;18.50;61.80;;;;;;20517;6837;278686;-73
2023/08/29 08:11:31;;;;;;;15.02;13.93;;;18.70;61.20;;;;;;20509;6837;337938;-72
2023/08/29 08:13:58;;;;;;;12.70;11.90;;;18.80;61.00;;;;;;20511;6837;280804;-73
2023/08/29 08:16:24;;;;;;;13.17;12.37;;;18.90;59.60;;;;;;20507;6837;308846;-72
2023/08/29 08:18:49;;;;;;;11.97;11.07;;;18.90;59.70;;;;;;20719;6837;117527;-72
2023/08/29 08:21:15;;;;;;;12.00;11.00;;;18.70;60.30;;;;;;20716;6837;118026;-73
2023/08/29 08:23:40;;;;;;;13.68;12.48;;;18.30;61.30;;;;;;20498;6837;278518;-72
2023/08/29 08:26:06;;;;;;;13.48;12.57;;;18.30;61.50;;;;;;20520;6837;277662;-73
2023/08/29 08:28:32;;;;;;;12.90;11.97;;;18.40;60.20;;;;;;20503;6837;289929;-74
2023/08/29 08:30:57;;;;;;;11.00;10.13;;;18.50;60.00;;;;;;20724;6837;120297;-72
2023/08/29 08:33:24;;;;;;;12.43;11.53;;;18.30;60.60;;;;;;20506;6837;314723;-72
2023/08/29 08:35:48;;;;;;;11.53;10.80;;;18.20;60.20;;;;;;20667;6837;120973;-73
2023/08/29 08:38:16;;;;;;;9.93;9.33;;;17.60;62.00;;;;;;20721;6837;120364;-73
2023/08/29 08:40:41;;;;;;;14.40;13.40;;;17.60;62.10;;;;;;20489;6837;308811;-73
2023/08/29 08:43:07;;;;;;;14.20;13.30;;;17.70;63.70;;;;;;20516;6837;308535;-73
2023/08/29 08:45:33;;;;;;;13.70;12.80;;;18.00;63.40;;;;;;20478;6837;280858;-73
2023/08/29 08:47:58;;;;;;;12.27;11.50;;;18.20;62.50;;;;;;20727;6837;120865;-73
2023/08/29 08:50:25;;;;;;;11.27;10.47;;;17.90;63.60;;;;;;20682;6837;117636;-73
2023/08/29 08:52:50;;;;;;;12.88;12.15;;;17.90;63.60;;;;;;20499;6837;335713;-73
2023/08/29 08:55:16;;;;;;;14.80;13.80;;;17.90;63.70;;;;;;20500;6837;312270;-73
2023/08/29 08:57:41;;;;;;;15.07;13.97;;;18.20;63.20;;;;;;20497;6837;281957;-73
2023/08/29 09:00:08;;;;;;;13.65;12.75;;;18.70;62.00;;;;;;20508;6837;315930;-72
2023/08/29 09:02:33;;;;;;;10.77;10.07;;;18.80;62.10;;;;;;20673;6837;121935;-72
2023/08/29 09:04:59;;;;;;;9.60;9.10;;;18.60;62.50;;;;;;20680;6835;117830;-72
2023/08/29 09:07:26;;;;;;;11.00;10.40;;;18.50;62.00;;;;;;20443;6832;311947;-73
2023/08/29 09:10:15;;;;;;;10.55;9.95;;;18.50;62.00;;;;;;20509;6832;310546;-72
2023/08/29 09:12:50;;;;;;;12.05;11.40;;;18.80;60.80;;;;;;20493;6832;309390;-72
2023/08/29 09:15:16;;;;;;;9.73;9.17;;;19.00;61.20;;;;;;20705;6833;118749;-72
2023/08/29 09:17:49;;;;;;;8.97;8.37;;;18.80;61.80;;;;;;20710;6833;119763;-72
2023/08/29 09:20:15;;;;;;;9.40;8.80;;;18.50;61.10;;;;;;20509;6833;280117;-72
2023/08/29 09:22:40;;;;;;;10.20;9.60;;;18.50;61.10;;;;;;20509;6833;280884;-72
2023/08/29 09:25:06;;;;;;;8.65;8.15;;;18.70;60.80;;;;;;20712;6833;118729;-72
2023/08/29 09:27:42;;;;;;;8.47;7.87;;;18.60;61.20;;;;;;20716;6833;121278;-72
2023/08/29 09:30:14;;;;;;;8.37;7.90;;;18.30;61.90;;;;;;20715;6833;120165;-72
2023/08/29 09:32:40;;;;;;;9.13;7.93;;;17.60;63.20;;;;;;20699;6833;120300;-72
2023/08/29 09:35:06;;;;;;;8.83;8.17;;;17.60;63.20;;;;;;20680;6833;117606;-72
2023/08/29 09:37:32;;;;;;;8.80;8.20;;;17.30;64.90;;;;;;20693;6833;120177;-72
2023/08/29 09:39:59;;;;;;;8.07;7.57;;;17.20;64.70;;;;;;20720;6833;117607;-72
2023/08/29 09:42:23;;;;;;;8.30;7.80;;;17.10;65.60;;;;;;20715;6833;117110;-73
2023/08/29 09:44:52;;;;;;;9.90;9.33;;;17.00;66.20;;;;;;20504;6833;278064;-72
2023/08/29 09:47:15;;;;;;;8.60;8.00;;;17.40;66.40;;;;;;20697;6833;122984;-73
2023/08/29 09:49:44;;;;;;;10.47;9.87;;;17.50;66.20;;;;;;20481;6833;278617;-72
2023/08/29 09:52:09;;;;;;;9.80;9.30;;;17.80;65.30;;;;;;20503;6833;306925;-72
2023/08/29 09:54:35;;;;;;;10.10;9.50;;;18.20;64.00;;;;;;20506;6833;307454;-72
2023/08/29 09:57:01;;;;;;;10.43;9.82;;;18.80;61.90;;;;;;20485;6833;307949;-73
2023/08/29 09:59:27;;;;;;;9.70;8.90;;;18.70;61.60;;;;;;20689;6833;117940;-74
2023/08/29 10:01:53;;;;;;;10.87;10.23;;;18.60;61.90;;;;;;20512;6833;313796;-73
2023/08/29 10:04:20;;;;;;;9.77;9.17;;;18.60;61.90;;;;;;20733;6833;118316;-76
2023/08/29 10:06:45;;;;;;;10.32;9.82;;;18.60;62.70;;;;;;20504;6833;278983;-76
2023/08/29 10:09:11;;;;;;;9.70;9.10;;;18.50;62.70;;;;;;20706;6833;117573;-77
2023/08/29 10:11:36;;;;;;;9.73;9.00;;;18.50;62.70;;;;;;20686;6833;127527;-72
2023/08/29 10:14:04;;;;;;;9.57;9.07;;;18.40;63.90;;;;;;20531;6833;336726;-74
2023/08/29 10:16:27;;;;;;;8.57;7.97;;;18.50;63.10;;;;;;20756;6831;117711;-73
2023/08/29 10:18:55;;;;;;;8.95;8.45;;;18.50;63.50;;;;;;20537;6832;310468;-73
2023/08/29 10:21:21;;;;;;;8.20;7.80;;;18.70;63.40;;;;;;20736;6832;117436;-73
2023/08/29 10:23:44;;;;;;;7.57;7.18;;;18.80;63.40;;;;;;20723;6832;123229;-71
2023/08/29 10:26:10;;;;;;;10.15;7.20;;;18.60;64.00;;;;;;20744;6833;117161;-75
2023/08/29 10:28:35;;;;;;;7.20;6.90;;;18.50;64.50;;;;;;20741;6833;117317;-74
2023/08/29 10:31:02;;;;;;;9.33;8.83;;;18.60;63.30;;;;;;20525;6833;308167;-73
2023/08/29 10:33:27;;;;;;;10.43;9.83;;;18.60;63.30;;;;;;20501;6833;298359;-73
2023/08/29 10:35:53;;;;;;;10.77;10.23;;;19.10;64.20;;;;;;20472;6833;311610;-70
2023/08/29 10:38:19;;;;;;;9.77;9.27;;;19.50;63.50;;;;;;20649;6833;118621;-70
2023/08/29 10:40:46;;;;;;;8.77;8.27;;;19.50;64.10;;;;;;20704;6833;122260;-69
2023/08/29 10:43:21;;;;;;;8.93;8.23;;;19.50;64.10;;;;;;20701;6833;117342;-71
2023/08/29 10:45:59;;;;;;;8.30;7.80;;;19.30;64.20;;;;;;20702;6833;120114;-71
2023/08/29 10:48:30;;;;;;;7.77;7.27;;;19.20;64.70;;;;;;20726;6833;117175;-72
2023/08/29 10:51:08;;;;;;;8.70;8.30;;;19.10;64.80;;;;;;20538;6833;307450;-71
2023/08/29 10:53:39;;;;;;;8.17;7.67;;;19.30;63.00;;;;;;20512;6833;308042;-70
2023/08/29 10:56:08;;;;;;;7.53;7.23;;;19.70;59.40;;;;;;20734;6833;121050;-72
2023/08/29 10:58:40;;;;;;;6.43;6.07;;;19.60;60.00;;;;;;20743;6833;117596;-74
2023/08/29 11:01:05;;;;;;;7.82;7.43;;;19.40;60.80;;;;;;20518;6833;279840;-71
2023/08/29 11:03:37;;;;;;;8.00;7.60;;;19.50;60.20;;;;;;20717;6833;127478;-71
2023/08/29 11:06:03;;;;;;;8.43;8.02;;;19.50;60.80;;;;;;20480;6833;332636;-71
2023/08/29 11:08:29;;;;;;;4.50;4.30;;;19.70;60.40;;;;;;20715;6833;118343;-71
2023/08/29 11:11:14;;;;;;;4.82;4.53;;;19.80;60.70;;;;;;20512;6833;308084;-71
2023/08/29 11:13:57;;;;;;;4.20;4.00;;;19.90;58.10;;;;;;20681;6833;120746;-71
2023/08/29 11:16:22;;;;;;;4.60;4.30;;;20.00;59.50;;;;;;20499;6833;310264;-71
2023/08/29 11:18:48;;;;;;;4.43;4.12;;;20.30;57.60;;;;;;20732;6833;117635;-71
2023/08/29 11:21:13;;;;;;;3.92;3.80;;;20.50;58.40;;;;;;20703;6833;118486;-71
2023/08/29 11:23:39;;;;;;;4.75;4.45;;;20.40;58.90;;;;;;20499;6833;278424;-71
2023/08/29 11:26:06;;;;;;;4.50;4.30;;;21.00;58.10;;;;;;20503;6833;343114;-70
2023/08/29 11:28:32;;;;;;;4.20;4.00;;;21.00;58.10;;;;;;20505;6831;327245;-72
2023/08/29 11:30:58;;;;;;;5.95;5.65;;;21.30;55.20;;;;;;20720;6832;121138;-73
2023/08/29 11:33:25;;;;;;;5.87;5.57;;;21.20;55.90;;;;;;20726;6832;123042;-74
2023/08/29 11:35:51;;;;;;;7.50;7.10;;;20.90;56.60;;;;;;20311;6833;308027;-71
2023/08/29 11:38:16;;;;;;;8.20;7.85;;;20.80;56.80;;;;;;20530;6833;279008;-70
2023/08/29 11:40:42;;;;;;;8.03;7.53;;;21.00;56.50;;;;;;20517;6833;308912;-71
2023/08/29 11:43:08;;;;;;;6.07;5.77;;;21.00;56.50;;;;;;20729;6833;117213;-70
2023/08/29 11:45:40;;;;;;;5.70;5.30;;;20.80;57.60;;;;;;20709;6833;118934;-70
2023/08/29 11:48:05;;;;;;;6.12;5.82;;;20.40;57.70;;;;;;20524;6833;325130;-70
2023/08/29 11:50:31;;;;;;;5.27;4.97;;;20.30;57.10;;;;;;20725;6833;118912;-71
2023/08/29 11:52:57;;;;;;;5.23;5.00;;;19.70;59.00;;;;;;20740;6833;120535;-71
2023/08/29 11:55:23;;;;;;;6.30;6.00;;;19.70;58.30;;;;;;20525;6833;279392;-70
2023/08/29 11:57:52;;;;;;;7.00;6.63;;;19.70;58.10;;;;;;20497;6833;280098;-70
2023/08/29 12:00:16;;;;;;;7.10;6.70;;;19.80;58.10;;;;;;20504;6833;309930;-71
2023/08/29 12:02:40;;;;;;;6.70;6.30;;;20.00;57.90;;;;;;20506;6833;320558;-70
2023/08/29 12:05:07;;;;;;;6.50;6.13;;;20.10;57.50;;;;;;20716;6833;119265;-74
2023/08/29 12:07:31;;;;;;;6.70;6.30;;;19.80;58.00;;;;;;20505;6833;278771;-75
2023/08/29 12:09:58;;;;;;;6.57;6.18;;;19.50;58.20;;;;;;20723;6833;118743;-73
2023/08/29 12:12:30;;;;;;;7.17;6.67;;;19.50;58.20;;;;;;20689;6833;117633;-72
2023/08/29 12:14:55;;;;;;;7.40;7.00;;;19.20;59.10;;;;;;20722;6833;122164;-72
2023/08/29 12:17:21;;;;;;;9.07;8.67;;;18.90;60.10;;;;;;20527;6833;309958;-72
2023/08/29 12:19:46;;;;;;;7.78;7.37;;;19.00;60.80;;;;;;20719;6833;121552;-71
2023/08/29 12:22:12;;;;;;;7.68;7.20;;;19.00;61.20;;;;;;20739;6833;119330;-70
2023/08/29 12:24:37;;;;;;;9.30;8.80;;;18.80;61.60;;;;;;20507;6833;311059;-69
2023/08/29 12:27:04;;;;;;;9.52;9.02;;;18.90;61.40;;;;;;20495;6833;280277;-69
2023/08/29 12:29:29;;;;;;;9.47;8.97;;;19.20;61.80;;;;;;20478;6833;310575;-68